createdAt,value
2019-03-23T00:00:01.055Z,101114.84
2019-03-23T00:00:40.064Z,101114.84
2019-03-23T00:01:18.655Z,101116.55
2019-03-23T00:01:54.808Z,101113.55
2019-03-23T00:02:30.827Z,101118.34
2019-03-23T00:03:07.143Z,101112.69
2019-03-23T00:03:43.097Z,101120.52
2019-03-23T00:04:19.419Z,101113.62
2019-03-23T00:04:55.679Z,101118.11
2019-03-23T00:05:31.739Z,101119.95
2019-03-23T00:06:07.698Z,101117.23
2019-03-23T00:06:43.659Z,101116.66
2019-03-23T00:07:20.017Z,101120.69
2019-03-23T00:07:55.998Z,101116.50
2019-03-23T00:08:32.322Z,101124.70
2019-03-23T00:09:08.781Z,101127.25
2019-03-23T00:09:44.839Z,101122.95
2019-03-23T00:10:20.927Z,101122.58
2019-03-23T00:10:56.994Z,101119.93
2019-03-23T00:11:33.063Z,101119.39
2019-03-23T00:12:09.378Z,101121.54
2019-03-23T00:12:45.482Z,101123.58
2019-03-23T00:13:21.489Z,101120.56
2019-03-23T00:13:57.942Z,101122.88
2019-03-23T00:14:34.402Z,101113.08
2019-03-23T00:15:11.002Z,101118.66
2019-03-23T00:15:47.821Z,101125.05
2019-03-23T00:16:24.295Z,101117.49
2019-03-23T00:17:00.262Z,101122.00
2019-03-23T00:17:36.256Z,101120.81
2019-03-23T00:18:12.412Z,101120.41
2019-03-23T00:18:48.780Z,101123.09
2019-03-23T00:19:24.786Z,101120.89
2019-03-23T00:20:00.774Z,101111.81
2019-03-23T00:20:37.019Z,101127.33
2019-03-23T00:21:13.054Z,101117.14
2019-03-23T00:21:49.494Z,101123.60
2019-03-23T00:22:25.692Z,101124.09
2019-03-23T00:23:01.662Z,101126.59
2019-03-23T00:23:37.742Z,101128.16
2019-03-23T00:24:14.537Z,101128.27
2019-03-23T00:24:50.649Z,101128.78
2019-03-23T00:25:26.659Z,101130.98
2019-03-23T00:26:02.664Z,101123.30
2019-03-23T00:26:39.865Z,101122.01
2019-03-23T00:27:15.870Z,101128.91
2019-03-23T00:27:51.871Z,101127.69
2019-03-23T00:28:27.864Z,101127.69
2019-03-23T00:29:03.835Z,101129.34
2019-03-23T00:29:40.623Z,101127.16
2019-03-23T00:30:16.781Z,101123.89
2019-03-23T00:30:53.766Z,101129.06
2019-03-23T00:31:30.662Z,101129.34
2019-03-23T00:32:06.875Z,101131.19
2019-03-23T00:32:43.022Z,101126.97
2019-03-23T00:33:19.112Z,101128.72
2019-03-23T00:33:55.684Z,101127.41
2019-03-23T00:34:31.643Z,101127.39
2019-03-23T00:35:08.215Z,101127.75
2019-03-23T00:35:44.169Z,101122.03
2019-03-23T00:36:20.469Z,101127.25
2019-03-23T00:36:56.853Z,101126.76
2019-03-23T00:37:33.250Z,101124.23
2019-03-23T00:38:09.315Z,101122.61
2019-03-23T00:38:45.545Z,101121.41
2019-03-23T00:39:21.833Z,101125.27
2019-03-23T00:39:58.336Z,101124.86
2019-03-23T00:40:34.400Z,101125.39
2019-03-23T00:41:10.836Z,101119.38
2019-03-23T00:41:46.832Z,101127.45
2019-03-23T00:42:22.818Z,101125.73
2019-03-23T00:42:58.968Z,101125.32
2019-03-23T00:43:34.936Z,101122.70
2019-03-23T00:44:10.901Z,101123.23
2019-03-23T00:44:47.322Z,101126.57
2019-03-23T00:45:24.120Z,101130.01
2019-03-23T00:46:00.115Z,101128.72
2019-03-23T00:46:36.495Z,101123.95
2019-03-23T00:47:12.560Z,101122.16
2019-03-23T00:47:48.548Z,101118.34
2019-03-23T00:48:24.626Z,101126.45
2019-03-23T00:49:00.995Z,101118.30
2019-03-23T00:49:36.946Z,101123.02
2019-03-23T00:50:13.502Z,101122.24
2019-03-23T00:50:49.578Z,101118.50
2019-03-23T00:51:25.569Z,101120.55
2019-03-23T00:52:01.546Z,101122.72
2019-03-23T00:52:37.625Z,101123.09
2019-03-23T00:53:13.869Z,101117.53
2019-03-23T00:53:49.963Z,101121.86
2019-03-23T00:54:26.059Z,101122.73
2019-03-23T00:55:02.728Z,101125.37
2019-03-23T00:55:39.020Z,101121.56
2019-03-23T00:56:16.572Z,101120.47
2019-03-23T00:56:53.133Z,101120.09
2019-03-23T00:57:29.279Z,101120.09
2019-03-23T00:58:05.361Z,101124.34
2019-03-23T00:58:41.337Z,101121.36
2019-03-23T00:59:17.517Z,101122.25
2019-03-23T00:59:54.017Z,101116.30
2019-03-23T01:00:30.170Z,101116.22
2019-03-23T01:01:06.155Z,101124.83
2019-03-23T01:01:42.231Z,101120.11
2019-03-23T01:02:18.301Z,101129.99
2019-03-23T01:02:54.722Z,101130.52
2019-03-23T01:03:30.749Z,101130.52
2019-03-23T01:04:06.818Z,101115.58
2019-03-23T01:04:42.891Z,101128.80
2019-03-23T01:05:19.356Z,101122.38
2019-03-23T01:05:55.378Z,101118.96
2019-03-23T01:06:31.893Z,101119.86
2019-03-23T01:07:07.866Z,101121.94
2019-03-23T01:07:43.902Z,101113.45
2019-03-23T01:08:19.878Z,101122.83
2019-03-23T01:08:56.237Z,101114.28
2019-03-23T01:09:32.248Z,101119.02
2019-03-23T01:10:09.086Z,101118.96
2019-03-23T01:10:45.063Z,101119.05
2019-03-23T01:11:21.031Z,101118.63
2019-03-23T01:11:57.100Z,101120.22
2019-03-23T01:12:33.125Z,101115.14
2019-03-23T01:13:09.498Z,101114.66
2019-03-23T01:13:45.557Z,101118.07
2019-03-23T01:14:21.589Z,101112.56
2019-03-23T01:14:57.601Z,101119.13
2019-03-23T01:15:33.551Z,101118.75
2019-03-23T01:16:09.880Z,101113.27
2019-03-23T01:16:45.895Z,101121.02
2019-03-23T01:17:21.948Z,101121.88
2019-03-23T01:17:58.032Z,101119.60
2019-03-23T01:18:34.018Z,101118.83
2019-03-23T01:19:10.100Z,101122.20
2019-03-23T01:19:46.193Z,101120.89
2019-03-23T01:20:22.281Z,101117.06
2019-03-23T01:20:58.602Z,101117.06
2019-03-23T01:21:34.667Z,101114.77
2019-03-23T01:22:11.031Z,101117.79
2019-03-23T01:22:47.053Z,101118.16
2019-03-23T01:23:23.634Z,101117.30
2019-03-23T01:24:00.165Z,101115.59
2019-03-23T01:24:36.231Z,101110.87
2019-03-23T01:25:12.833Z,101112.51
2019-03-23T01:25:49.531Z,101111.62
2019-03-23T01:26:25.823Z,101112.80
2019-03-23T01:27:01.830Z,101113.33
2019-03-23T01:27:37.918Z,101113.34
2019-03-23T01:28:14.006Z,101112.13
2019-03-23T01:28:50.025Z,101110.85
2019-03-23T01:29:26.077Z,101111.34
2019-03-23T01:30:02.436Z,101111.81
2019-03-23T01:30:38.416Z,101109.66
2019-03-23T01:31:14.631Z,101113.48
2019-03-23T01:31:50.878Z,101112.24
2019-03-23T01:32:27.078Z,101118.63
2019-03-23T01:33:03.459Z,101112.61
2019-03-23T01:33:40.010Z,101108.39
2019-03-23T01:34:16.311Z,101119.16
2019-03-23T01:34:52.323Z,101108.95
2019-03-23T01:35:28.359Z,101105.02
2019-03-23T01:36:04.473Z,101112.84
2019-03-23T01:36:40.437Z,101106.03
2019-03-23T01:37:16.395Z,101118.83
2019-03-23T01:37:52.434Z,101117.54
2019-03-23T01:38:29.266Z,101118.00
2019-03-23T01:39:07.091Z,101118.00
2019-03-23T01:39:43.396Z,101118.39
2019-03-23T01:40:19.371Z,101120.92
2019-03-23T01:40:55.393Z,101111.51
2019-03-23T01:41:31.376Z,101113.69
2019-03-23T01:42:07.371Z,101118.00
2019-03-23T01:42:43.439Z,101110.69
2019-03-23T01:43:19.471Z,101111.56
2019-03-23T01:43:55.568Z,101108.20
2019-03-23T01:44:31.780Z,101110.72
2019-03-23T01:45:08.644Z,101110.72
2019-03-23T01:45:44.829Z,101108.21
2019-03-23T01:46:20.931Z,101106.08
2019-03-23T01:46:57.125Z,101113.77
2019-03-23T01:47:33.516Z,101108.63
2019-03-23T01:48:09.878Z,101108.63
2019-03-23T01:48:45.842Z,101107.03
2019-03-23T01:49:21.949Z,101103.20
2019-03-23T01:49:57.945Z,101103.20
2019-03-23T01:50:33.954Z,101103.52
2019-03-23T01:51:09.926Z,101103.52
2019-03-23T01:51:46.253Z,101105.25
2019-03-23T01:52:22.574Z,101107.87
2019-03-23T01:52:58.944Z,101107.87
2019-03-23T01:53:34.911Z,101107.44
2019-03-23T01:54:10.873Z,101107.44
2019-03-23T01:54:46.840Z,101105.77
2019-03-23T01:55:22.866Z,101104.92
2019-03-23T01:55:59.020Z,101104.05
2019-03-23T01:56:35.100Z,101106.20
2019-03-23T01:57:11.085Z,101106.72
2019-03-23T01:57:47.067Z,101105.91
2019-03-23T01:58:23.162Z,101103.38
2019-03-23T01:58:59.523Z,101104.23
2019-03-23T01:59:35.587Z,101108.44
2019-03-23T02:00:11.945Z,101108.44
2019-03-23T02:00:47.922Z,101104.57
2019-03-23T02:01:24.105Z,101096.00
2019-03-23T02:02:00.566Z,101105.01
2019-03-23T02:02:36.833Z,101102.83
2019-03-23T02:03:13.266Z,101094.27
2019-03-23T02:03:50.054Z,101104.14
2019-03-23T02:04:26.522Z,101099.08
2019-03-23T02:05:02.511Z,101110.16
2019-03-23T02:05:38.612Z,101101.16
2019-03-23T02:06:14.573Z,101104.19
2019-03-23T02:06:51.483Z,101102.01
2019-03-23T02:07:27.878Z,101102.78
2019-03-23T02:08:03.858Z,101102.83
2019-03-23T02:08:39.879Z,101102.89
2019-03-23T02:09:15.829Z,101102.55
2019-03-23T02:09:51.833Z,101097.83
2019-03-23T02:10:27.866Z,101097.38
2019-03-23T02:11:04.693Z,101102.56
2019-03-23T02:11:41.471Z,101099.57
2019-03-23T02:12:17.449Z,101103.16
2019-03-23T02:12:53.574Z,101103.55
2019-03-23T02:13:29.597Z,101096.23
2019-03-23T02:14:05.663Z,101095.70
2019-03-23T02:14:41.639Z,101100.75
2019-03-23T02:15:17.898Z,101101.66
2019-03-23T02:15:54.023Z,101096.95
2019-03-23T02:16:30.026Z,101099.88
2019-03-23T02:17:05.992Z,101097.30
2019-03-23T02:17:42.261Z,101102.01
2019-03-23T02:18:18.311Z,101099.86
2019-03-23T02:18:54.397Z,101099.39
2019-03-23T02:19:30.430Z,101098.11
2019-03-23T02:20:07.852Z,101090.42
2019-03-23T02:20:43.854Z,101095.20
2019-03-23T02:21:20.279Z,101091.79
2019-03-23T02:21:57.192Z,101093.52
2019-03-23T02:22:33.619Z,101090.11
2019-03-23T02:23:09.642Z,101088.71
2019-03-23T02:23:45.973Z,101089.56
2019-03-23T02:24:22.013Z,101095.58
2019-03-23T02:24:58.359Z,101096.45
2019-03-23T02:25:34.483Z,101091.77
2019-03-23T02:26:10.457Z,101086.11
2019-03-23T02:26:46.448Z,101087.00
2019-03-23T02:27:22.575Z,101087.86
2019-03-23T02:27:59.079Z,101092.66
2019-03-23T02:28:35.447Z,101096.12
2019-03-23T02:29:11.430Z,101090.63
2019-03-23T02:29:47.798Z,101091.37
2019-03-23T02:30:23.800Z,101093.52
2019-03-23T02:31:00.761Z,101091.82
2019-03-23T02:31:36.776Z,101090.95
2019-03-23T02:32:12.914Z,101091.80
2019-03-23T02:32:48.903Z,101087.59
2019-03-23T02:33:25.242Z,101094.49
2019-03-23T02:34:01.372Z,101090.61
2019-03-23T02:34:37.757Z,101091.08
2019-03-23T02:35:13.941Z,101096.66
2019-03-23T02:35:49.926Z,101097.72
2019-03-23T02:36:26.173Z,101093.44
2019-03-23T02:37:02.232Z,101096.96
2019-03-23T02:37:38.217Z,101096.22
2019-03-23T02:38:14.193Z,101098.44
2019-03-23T02:38:50.581Z,101092.09
2019-03-23T02:39:26.633Z,101093.34
2019-03-23T02:40:02.646Z,101097.61
2019-03-23T02:40:38.794Z,101090.73
2019-03-23T02:41:14.873Z,101097.07
2019-03-23T02:41:51.010Z,101091.17
2019-03-23T02:42:27.497Z,101091.17
2019-03-23T02:43:03.817Z,101098.13
2019-03-23T02:43:39.948Z,101093.77
2019-03-23T02:44:15.907Z,101097.30
2019-03-23T02:44:52.450Z,101100.80
2019-03-23T02:45:30.382Z,101099.08
2019-03-23T02:46:06.217Z,101097.81
2019-03-23T02:46:42.977Z,101091.73
2019-03-23T02:47:19.639Z,101096.08
2019-03-23T02:47:55.642Z,101102.98
2019-03-23T02:48:32.130Z,101097.30
2019-03-23T02:49:08.554Z,101099.12
2019-03-23T02:49:44.525Z,101097.02
2019-03-23T02:50:20.817Z,101097.02
2019-03-23T02:50:56.953Z,101094.84
2019-03-23T02:51:32.945Z,101103.92
2019-03-23T02:52:08.956Z,101098.08
2019-03-23T02:52:44.919Z,101098.08
2019-03-23T02:53:21.280Z,101092.48
2019-03-23T02:53:57.285Z,101089.07
2019-03-23T02:54:33.365Z,101093.02
2019-03-23T02:55:09.975Z,101091.80
2019-03-23T02:55:45.941Z,101093.88
2019-03-23T02:56:22.253Z,101090.96
2019-03-23T02:56:58.360Z,101090.96
2019-03-23T02:57:34.601Z,101095.28
2019-03-23T02:58:10.585Z,101095.28
2019-03-23T02:58:46.580Z,101092.78
2019-03-23T02:59:22.580Z,101085.48
2019-03-23T02:59:58.639Z,101085.48
2019-03-23T03:00:35.003Z,101094.84
2019-03-23T03:01:11.306Z,101085.19
2019-03-23T03:01:47.385Z,101088.05
2019-03-23T03:02:23.414Z,101087.25
2019-03-23T03:02:59.500Z,101088.63
2019-03-23T03:03:36.230Z,101088.63
2019-03-23T03:04:12.218Z,101083.55
2019-03-23T03:04:48.226Z,101094.28
2019-03-23T03:05:24.616Z,101090.80
2019-03-23T03:06:00.741Z,101091.23
2019-03-23T03:06:36.711Z,101092.58
2019-03-23T03:07:12.706Z,101095.52
2019-03-23T03:07:48.793Z,101096.72
2019-03-23T03:08:25.008Z,101096.72
2019-03-23T03:09:01.226Z,101097.74
2019-03-23T03:09:37.862Z,101090.95
2019-03-23T03:10:17.173Z,101084.17
2019-03-23T03:10:53.532Z,101093.59
2019-03-23T03:11:29.503Z,101099.13
2019-03-23T03:12:05.481Z,101091.02
2019-03-23T03:12:41.452Z,101099.66
2019-03-23T03:13:17.741Z,101099.66
2019-03-23T03:13:54.188Z,101092.73
2019-03-23T03:14:30.170Z,101095.66
2019-03-23T03:15:06.804Z,101095.66
2019-03-23T03:15:42.789Z,101099.05
2019-03-23T03:16:18.788Z,101099.05
2019-03-23T03:16:54.776Z,101100.45
2019-03-23T03:17:30.842Z,101100.45
2019-03-23T03:18:07.840Z,101101.76
2019-03-23T03:18:44.714Z,101100.05
2019-03-23T03:19:21.072Z,101100.05
2019-03-23T03:19:57.418Z,101104.75
2019-03-23T03:20:33.762Z,101104.75
2019-03-23T03:21:09.759Z,101104.32
2019-03-23T03:21:46.055Z,101100.95
2019-03-23T03:22:22.436Z,101100.95
2019-03-23T03:22:58.886Z,101101.39
2019-03-23T03:23:34.957Z,101092.39
2019-03-23T03:24:10.922Z,101091.95
2019-03-23T03:24:47.334Z,101100.53
2019-03-23T03:25:23.404Z,101100.97
2019-03-23T03:25:59.454Z,101100.97
2019-03-23T03:26:36.087Z,101100.59
2019-03-23T03:27:12.157Z,101098.91
2019-03-23T03:27:48.096Z,101102.34
2019-03-23T03:28:24.776Z,101102.34
2019-03-23T03:29:00.905Z,101110.95
2019-03-23T03:29:37.244Z,101099.38
2019-03-23T03:30:13.840Z,101102.69
2019-03-23T03:30:49.829Z,101102.69
2019-03-23T03:31:25.945Z,101100.11
2019-03-23T03:32:02.395Z,101100.11
2019-03-23T03:32:38.364Z,101103.95
2019-03-23T03:33:14.433Z,101097.98
2019-03-23T03:33:50.933Z,101095.41
2019-03-23T03:34:26.962Z,101095.41
2019-03-23T03:35:03.143Z,101094.17
2019-03-23T03:35:39.463Z,101099.25
2019-03-23T03:36:15.473Z,101099.25
2019-03-23T03:36:51.440Z,101099.18
2019-03-23T03:37:27.452Z,101102.16
2019-03-23T03:38:03.415Z,101102.16
2019-03-23T03:38:39.380Z,101103.03
2019-03-23T03:39:15.817Z,101098.32
2019-03-23T03:39:51.805Z,101103.88
2019-03-23T03:40:27.937Z,101105.56
2019-03-23T03:41:04.167Z,101092.75
2019-03-23T03:41:40.472Z,101092.75
2019-03-23T03:42:16.454Z,101102.88
2019-03-23T03:42:53.198Z,101102.48
2019-03-23T03:43:29.265Z,101108.97
2019-03-23T03:44:05.403Z,101098.73
2019-03-23T03:44:41.715Z,101102.13
2019-03-23T03:45:24.182Z,101102.13
2019-03-23T03:46:00.247Z,101109.77
2019-03-23T03:46:36.207Z,101106.77
2019-03-23T03:47:12.714Z,101106.81
2019-03-23T03:47:48.698Z,101106.81
2019-03-23T03:48:25.210Z,101116.56
2019-03-23T03:49:12.457Z,101113.18
2019-03-23T03:49:39.321Z,101113.62
2019-03-23T03:50:15.479Z,101116.25
2019-03-23T03:50:51.455Z,101116.25
2019-03-23T03:51:27.577Z,101105.55
2019-03-23T03:52:03.578Z,101117.06
2019-03-23T03:52:39.546Z,101109.34
2019-03-23T03:53:15.632Z,101104.68
2019-03-23T03:53:51.982Z,101114.90
2019-03-23T03:54:28.432Z,101114.90
2019-03-23T03:55:04.517Z,101117.89
2019-03-23T03:55:40.483Z,101102.95
2019-03-23T03:56:16.449Z,101108.09
2019-03-23T03:56:53.938Z,101115.33
2019-03-23T03:57:30.458Z,101108.54
2019-03-23T03:58:06.431Z,101119.69
2019-03-23T03:58:42.504Z,101104.75
2019-03-23T03:59:18.927Z,101107.25
2019-03-23T03:59:55.291Z,101107.25
2019-03-23T04:00:31.837Z,101118.33
2019-03-23T04:01:07.816Z,101118.75
2019-03-23T04:01:44.206Z,101125.61
2019-03-23T04:02:20.202Z,101125.61
2019-03-23T04:02:56.318Z,101122.18
2019-03-23T04:03:32.631Z,101112.77
2019-03-23T04:04:08.627Z,101116.62
2019-03-23T04:04:44.603Z,101116.62
2019-03-23T04:05:20.611Z,101120.92
2019-03-23T04:05:57.015Z,101118.77
2019-03-23T04:06:33.696Z,101118.77
2019-03-23T04:07:10.687Z,101117.91
2019-03-23T04:07:46.707Z,101118.77
2019-03-23T04:08:22.798Z,101118.39
2019-03-23T04:08:58.989Z,101118.39
2019-03-23T04:09:34.976Z,101121.84
2019-03-23T04:10:11.406Z,101121.00
2019-03-23T04:10:47.533Z,101116.70
2019-03-23T04:11:23.725Z,101123.50
2019-03-23T04:11:59.878Z,101114.62
2019-03-23T04:12:36.683Z,101117.98
2019-03-23T04:13:12.666Z,101121.92
2019-03-23T04:13:49.050Z,101121.92
2019-03-23T04:14:25.473Z,101120.64
2019-03-23T04:15:02.426Z,101129.21
2019-03-23T04:15:38.402Z,101124.42
2019-03-23T04:16:14.803Z,101121.06
2019-03-23T04:16:50.896Z,101116.41
2019-03-23T04:17:27.407Z,101107.47
2019-03-23T04:18:03.768Z,101116.03
2019-03-23T04:18:39.744Z,101116.03
2019-03-23T04:19:15.744Z,101111.33
2019-03-23T04:19:51.787Z,101114.28
2019-03-23T04:20:27.830Z,101114.27
2019-03-23T04:21:03.912Z,101112.13
2019-03-23T04:21:39.870Z,101101.83
2019-03-23T04:22:16.296Z,101114.20
2019-03-23T04:22:52.397Z,101113.34
2019-03-23T04:23:28.397Z,101113.34
2019-03-23T04:24:04.739Z,101109.98
2019-03-23T04:24:40.722Z,101109.98
2019-03-23T04:25:17.152Z,101112.61
2019-03-23T04:25:53.707Z,101113.47
2019-03-23T04:26:29.730Z,101114.70
2019-03-23T04:27:05.996Z,101114.70
2019-03-23T04:27:42.282Z,101110.47
2019-03-23T04:28:18.824Z,101105.77
2019-03-23T04:28:55.365Z,101110.92
2019-03-23T04:29:31.378Z,101110.92
2019-03-23T04:30:08.270Z,101111.70
2019-03-23T04:30:44.258Z,101111.70
2019-03-23T04:31:20.257Z,101105.70
2019-03-23T04:31:56.301Z,101104.95
2019-03-23T04:32:32.341Z,101105.45
2019-03-23T04:33:08.622Z,101107.23
2019-03-23T04:33:44.695Z,101111.45
2019-03-23T04:34:20.866Z,101111.45
2019-03-23T04:34:57.790Z,101110.19
2019-03-23T04:35:33.781Z,101118.14
2019-03-23T04:36:09.764Z,101108.28
2019-03-23T04:36:46.302Z,101106.59
2019-03-23T04:37:22.307Z,101110.96
2019-03-23T04:37:58.523Z,101115.20
2019-03-23T04:38:34.501Z,101115.20
2019-03-23T04:39:10.477Z,101112.73
2019-03-23T04:39:47.002Z,101119.12
2019-03-23T04:40:23.189Z,101119.12
2019-03-23T04:40:59.660Z,101120.05
2019-03-23T04:41:36.026Z,101118.80
2019-03-23T04:42:12.001Z,101113.23
2019-03-23T04:42:48.092Z,101120.02
2019-03-23T04:43:24.458Z,101120.94
2019-03-23T04:44:00.481Z,101120.94
2019-03-23T04:44:36.453Z,101111.59
2019-03-23T04:45:12.814Z,101119.77
2019-03-23T04:45:48.864Z,101118.07
2019-03-23T04:46:24.879Z,101127.49
2019-03-23T04:47:01.265Z,101115.50
2019-03-23T04:47:37.242Z,101115.50
2019-03-23T04:48:13.242Z,101124.86
2019-03-23T04:48:49.632Z,101124.86
2019-03-23T04:49:25.618Z,101122.25
2019-03-23T04:50:01.961Z,101114.11
2019-03-23T04:50:37.934Z,101114.11
2019-03-23T04:51:13.927Z,101118.50
2019-03-23T04:51:50.218Z,101123.64
2019-03-23T04:52:26.233Z,101120.22
2019-03-23T04:53:02.672Z,101119.80
2019-03-23T04:53:38.639Z,101119.80
2019-03-23T04:54:14.623Z,101115.59
2019-03-23T04:54:51.025Z,101115.59
2019-03-23T04:55:27.133Z,101117.27
2019-03-23T04:56:03.120Z,101117.27
2019-03-23T04:56:39.089Z,101121.92
2019-03-23T04:57:15.305Z,101121.92
2019-03-23T04:57:51.278Z,101112.08
2019-03-23T04:58:27.268Z,101119.41
2019-03-23T04:59:03.264Z,101112.98
2019-03-23T04:59:39.279Z,101119.80
2019-03-23T05:00:16.249Z,101119.80
2019-03-23T05:00:52.620Z,101121.13
2019-03-23T05:01:28.736Z,101121.22
2019-03-23T05:02:05.167Z,101120.74
2019-03-23T05:02:41.162Z,101124.13
2019-03-23T05:03:17.145Z,101116.88
2019-03-23T05:03:53.552Z,101116.88
2019-03-23T05:04:30.220Z,101122.03
2019-03-23T05:05:06.617Z,101114.38
2019-03-23T05:05:42.696Z,101114.38
2019-03-23T05:06:18.653Z,101120.79
2019-03-23T05:06:54.652Z,101124.17
2019-03-23T05:07:30.641Z,101124.17
2019-03-23T05:08:06.613Z,101125.45
2019-03-23T05:08:42.582Z,101120.36
2019-03-23T05:09:18.589Z,101124.27
2019-03-23T05:09:54.596Z,101125.98
2019-03-23T05:10:30.685Z,101134.55
2019-03-23T05:11:06.853Z,101131.55
2019-03-23T05:11:42.836Z,101126.84
2019-03-23T05:12:18.825Z,101126.84
2019-03-23T05:12:55.060Z,101137.11
2019-03-23T05:13:31.164Z,101125.59
2019-03-23T05:14:07.148Z,101134.55
2019-03-23T05:14:43.157Z,101136.26
2019-03-23T05:15:19.134Z,101137.97
2019-03-23T05:15:55.254Z,101134.12
2019-03-23T05:16:31.916Z,101134.12
2019-03-23T05:17:07.968Z,101131.55
2019-03-23T05:17:43.936Z,101131.55
2019-03-23T05:18:20.129Z,101129.41
2019-03-23T05:18:56.134Z,101129.88
2019-03-23T05:19:32.190Z,101126.41
2019-03-23T05:20:08.875Z,101126.41
2019-03-23T05:20:44.860Z,101123.36
2019-03-23T05:21:21.071Z,101130.65
2019-03-23T05:21:57.220Z,101130.65
2019-03-23T05:22:33.298Z,101128.13
2019-03-23T05:23:09.268Z,101128.13
2019-03-23T05:23:45.921Z,101127.69
2019-03-23T05:24:23.422Z,101127.27
2019-03-23T05:24:59.542Z,101137.58
2019-03-23T05:25:35.978Z,101136.25
2019-03-23T05:26:11.942Z,101136.25
2019-03-23T05:26:48.764Z,101134.98
2019-03-23T05:27:25.273Z,101133.27
2019-03-23T05:28:01.404Z,101144.44
2019-03-23T05:28:37.794Z,101139.30
2019-03-23T05:29:13.822Z,101139.30
2019-03-23T05:29:50.148Z,101136.69
2019-03-23T05:30:26.399Z,101136.69
2019-03-23T05:31:02.804Z,101136.34
2019-03-23T05:31:38.860Z,101133.77
2019-03-23T05:32:14.843Z,101133.77
2019-03-23T05:32:50.871Z,101141.45
2019-03-23T05:33:26.832Z,101141.45
2019-03-23T05:34:02.918Z,101144.48
2019-03-23T05:34:39.318Z,101144.48
2019-03-23T05:35:15.284Z,101139.34
2019-03-23T05:35:51.406Z,101139.34
2019-03-23T05:36:27.730Z,101139.77
2019-03-23T05:37:03.719Z,101143.62
2019-03-23T05:37:39.685Z,101146.19
2019-03-23T05:38:16.032Z,101145.33
2019-03-23T05:38:52.057Z,101145.33
2019-03-23T05:39:28.528Z,101141.91
2019-03-23T05:40:04.891Z,101138.95
2019-03-23T05:41:15.167Z,101139.34
2019-03-23T05:41:51.247Z,101147.87
2019-03-23T05:42:27.274Z,101140.20
2019-03-23T05:43:03.247Z,101140.20
2019-03-23T05:43:39.210Z,101146.15
2019-03-23T05:44:15.612Z,101148.72
2019-03-23T05:44:51.625Z,101142.30
2019-03-23T05:45:27.706Z,101139.34
2019-03-23T05:46:03.774Z,101142.30
2019-03-23T05:46:39.743Z,101145.72
2019-03-23T05:47:15.705Z,101147.83
2019-03-23T05:47:51.736Z,101152.58
2019-03-23T05:48:27.860Z,101151.72
2019-03-23T05:49:04.147Z,101152.15
2019-03-23T05:49:40.710Z,101152.15
2019-03-23T05:50:17.070Z,101154.30
2019-03-23T05:50:53.123Z,101153.00
2019-03-23T05:51:29.578Z,101160.28
2019-03-23T05:52:05.644Z,101150.47
2019-03-23T05:52:41.605Z,101161.61
2019-03-23T05:53:17.697Z,101168.45
2019-03-23T05:53:54.554Z,101165.42
2019-03-23T05:54:30.554Z,101165.86
2019-03-23T05:55:06.922Z,101161.18
2019-03-23T05:55:42.917Z,101170.59
2019-03-23T05:56:18.897Z,101168.00
2019-03-23T05:56:54.888Z,101168.39
2019-03-23T05:57:30.860Z,101164.14
2019-03-23T05:58:06.842Z,101164.14
2019-03-23T05:58:42.810Z,101167.56
2019-03-23T05:59:18.873Z,101165.86
2019-03-23T05:59:54.910Z,101155.19
2019-03-23T06:00:31.421Z,101155.19
2019-03-23T06:01:07.403Z,101166.31
2019-03-23T06:01:43.384Z,101168.86
2019-03-23T06:02:20.489Z,101165.03
2019-03-23T06:02:56.488Z,101165.86
2019-03-23T06:03:32.465Z,101167.60
2019-03-23T06:04:08.546Z,101167.53
2019-03-23T06:04:44.527Z,101170.49
2019-03-23T06:05:20.868Z,101167.02
2019-03-23T06:05:56.971Z,101167.02
2019-03-23T06:06:33.036Z,101168.34
2019-03-23T06:07:09.009Z,101172.13
2019-03-23T06:07:45.169Z,101172.13
2019-03-23T06:08:21.255Z,101171.30
2019-03-23T06:08:57.236Z,101164.48
2019-03-23T06:09:33.220Z,101164.48
2019-03-23T06:10:10.009Z,101168.34
2019-03-23T06:10:46.010Z,101168.34
2019-03-23T06:11:22.021Z,101162.77
2019-03-23T06:11:58.484Z,101167.88
2019-03-23T06:12:34.451Z,101170.88
2019-03-23T06:13:10.410Z,101171.73
2019-03-23T06:13:46.494Z,101175.12
2019-03-23T06:14:22.657Z,101175.12
2019-03-23T06:14:58.675Z,101176.88
2019-03-23T06:15:34.639Z,101175.55
2019-03-23T06:16:10.690Z,101168.64
2019-03-23T06:16:46.659Z,101173.78
2019-03-23T06:17:22.677Z,101175.06
2019-03-23T06:17:58.695Z,101175.06
2019-03-23T06:18:34.761Z,101172.06
2019-03-23T06:19:10.721Z,101170.78
2019-03-23T06:19:47.056Z,101175.03
2019-03-23T06:20:23.205Z,101178.11
2019-03-23T06:20:59.185Z,101167.88
2019-03-23T06:21:35.272Z,101169.55
2019-03-23T06:22:11.339Z,101169.55
2019-03-23T06:22:47.405Z,101177.30
2019-03-23T06:23:23.738Z,101177.30
2019-03-23T06:24:00.115Z,101173.88
2019-03-23T06:24:36.099Z,101173.83
2019-03-23T06:25:12.282Z,101178.98
2019-03-23T06:25:48.255Z,101180.26
2019-03-23T06:26:24.708Z,101184.07
2019-03-23T06:27:01.215Z,101184.07
2019-03-23T06:27:37.713Z,101177.22
2019-03-23T06:28:13.770Z,101177.22
2019-03-23T06:28:49.753Z,101194.78
2019-03-23T06:29:25.751Z,101194.78
2019-03-23T06:30:01.778Z,101190.88
2019-03-23T06:30:38.133Z,101195.55
2019-03-23T06:31:14.449Z,101195.55
2019-03-23T06:31:50.443Z,101189.13
2019-03-23T06:32:26.933Z,101194.69
2019-03-23T06:33:02.985Z,101194.69
2019-03-23T06:33:39.248Z,101187.36
2019-03-23T06:34:15.231Z,101192.54
2019-03-23T06:34:51.414Z,101192.54
2019-03-23T06:35:27.427Z,101196.02
2019-03-23T06:36:03.443Z,101196.02
2019-03-23T06:36:39.406Z,101199.40
2019-03-23T06:37:15.736Z,101203.27
2019-03-23T06:37:52.261Z,101203.27
2019-03-23T06:38:28.731Z,101195.11
2019-03-23T06:39:06.196Z,101203.27
2019-03-23T06:39:42.178Z,101196.49
2019-03-23T06:40:18.490Z,101196.49
2019-03-23T06:40:54.856Z,101203.31
2019-03-23T06:41:30.926Z,101193.11
2019-03-23T06:42:07.001Z,101205.50
2019-03-23T06:42:43.287Z,101197.35
2019-03-23T06:43:19.252Z,101202.45
2019-03-23T06:43:55.476Z,101203.35
2019-03-23T06:44:31.698Z,101203.35
2019-03-23T06:45:08.963Z,101196.50
2019-03-23T06:45:45.366Z,101196.45
2019-03-23T06:46:21.400Z,101201.60
2019-03-23T06:46:57.405Z,101201.60
2019-03-23T06:47:33.375Z,101189.59
2019-03-23T06:48:09.330Z,101189.59
2019-03-23T06:48:45.320Z,101195.98
2019-03-23T06:49:21.368Z,101198.08
2019-03-23T06:49:57.394Z,101191.64
2019-03-23T06:50:33.356Z,101197.16
2019-03-23T06:51:09.328Z,101196.34
2019-03-23T06:51:45.300Z,101196.34
2019-03-23T06:52:21.375Z,101189.87
2019-03-23T06:52:57.363Z,101202.69
2019-03-23T06:53:33.884Z,101195.87